Time;durP1;ratioP1;P1;durP2;ratioP2;P2;SDS_P1;SDS_P2;PMS_P1;PMS_P2;Temp;Humidity;BMP_temperature;BMP_pressure;BME280_temperature;BME280_humidity;BME280_pressure;Samples;Min_cycle;Max_cycle;Signal;HPM_P1;HPM_P2
2022/10/21 00:01:23;;;;;;;124.35;116.63;;;;;;;;;;10140298;28;20062;-70
2022/10/21 00:06:19;;;;;;;124.38;117.38;;;;;;;;;;10140227;28;20059;-70
2022/10/21 00:11:15;;;;;;;124.72;117.60;;;;;;;;;;10136423;28;20503;-70
2022/10/21 00:16:15;;;;;;;121.82;114.85;;;;;;;;;;10144006;28;20412;-70
2022/10/21 00:21:13;;;;;;;126.13;118.75;;;;;;;;;;10134960;28;20425;-70
2022/10/21 00:26:11;;;;;;;122.35;115.35;;;;;;;;;;10120343;28;20043;-70
2022/10/21 00:31:08;;;;;;;125.70;118.50;;;;;;;;;;10148380;28;20505;-70
2022/10/21 00:36:06;;;;;;;123.55;116.15;;;;;;;;;;10149787;28;20054;-70
2022/10/21 00:41:02;;;;;;;127.85;120.25;;;;;;;;;;10149675;28;20042;-70
2022/10/21 00:46:01;;;;;;;127.28;119.68;;;;;;;;;;10138507;28;20043;-70
2022/10/21 00:51:02;;;;;;;119.45;112.25;;;;;;;;;;10116477;28;20077;-70
2022/10/21 00:56:01;;;;;;;117.40;110.17;;;;;;;;;;10148465;28;20051;-70
2022/10/21 01:00:58;;;;;;;120.80;113.47;;;;;;;;;;10131191;28;20039;-70
2022/10/21 01:05:56;;;;;;;123.75;116.25;;;;;;;;;;10118049;28;20500;-70
2022/10/21 01:10:52;;;;;;;126.00;118.30;;;;;;;;;;10142870;28;20038;-70
2022/10/21 01:15:58;;;;;;;123.75;116.10;;;;;;;;;;10130649;28;20038;-70
2022/10/21 01:20:56;;;;;;;122.13;114.90;;;;;;;;;;10102499;28;20475;-70
2022/10/21 01:25:52;;;;;;;121.28;113.82;;;;;;;;;;10136813;28;20046;-70
2022/10/21 01:31:09;;;;;;;122.97;115.57;;;;;;;;;;10143745;28;20424;-70
2022/10/21 01:36:05;;;;;;;125.63;118.00;;;;;;;;;;10139030;28;20053;-70
2022/10/21 01:41:20;;;;;;;120.03;112.72;;;;;;;;;;10132652;28;20077;-70
2022/10/21 01:46:22;;;;;;;121.57;114.22;;;;;;;;;;10120976;28;20517;-70
2022/10/21 01:51:19;;;;;;;118.90;111.70;;;;;;;;;;10133905;28;20054;-70
2022/10/21 01:56:16;;;;;;;114.75;107.65;;;;;;;;;;10136939;28;20052;-70
2022/10/21 02:01:14;;;;;;;119.10;111.80;;;;;;;;;;10136912;28;20054;-70
2022/10/21 02:06:12;;;;;;;117.75;110.65;;;;;;;;;;10147352;28;20050;-70
2022/10/21 02:11:10;;;;;;;120.07;112.72;;;;;;;;;;10168266;28;20464;-70
2022/10/21 02:16:08;;;;;;;116.55;109.38;;;;;;;;;;10137031;28;20050;-70
2022/10/21 02:21:07;;;;;;;122.20;114.45;;;;;;;;;;10136847;28;20050;-70
2022/10/21 02:26:03;;;;;;;116.20;109.10;;;;;;;;;;10109940;28;20050;-70
2022/10/21 02:31:15;;;;;;;118.82;111.35;;;;;;;;;;10122032;28;20069;-70
2022/10/21 02:36:31;;;;;;;115.90;108.50;;;;;;;;;;10141448;28;20062;-70
2022/10/21 02:41:28;;;;;;;117.13;109.60;;;;;;;;;;10148308;28;20069;-70
2022/10/21 02:46:25;;;;;;;117.85;110.43;;;;;;;;;;10146008;28;20416;-70
2022/10/21 02:51:21;;;;;;;118.90;111.40;;;;;;;;;;10150825;28;20055;-70
2022/10/21 02:56:18;;;;;;;116.20;108.90;;;;;;;;;;10166682;28;20057;-70
2022/10/21 03:01:14;;;;;;;119.07;111.45;;;;;;;;;;10142107;28;20649;-70
2022/10/21 03:06:10;;;;;;;120.97;113.03;;;;;;;;;;10158885;28;20054;-70
2022/10/21 03:11:07;;;;;;;117.13;109.85;;;;;;;;;;10155204;28;20046;-70
2022/10/21 03:16:03;;;;;;;117.95;110.30;;;;;;;;;;10156784;28;20069;-70
2022/10/21 03:20:59;;;;;;;125.45;117.18;;;;;;;;;;10155488;28;20416;-70
2022/10/21 03:25:55;;;;;;;121.53;113.60;;;;;;;;;;10135274;28;20059;-70
2022/10/21 03:30:53;;;;;;;118.20;110.72;;;;;;;;;;10144279;28;20092;-70
2022/10/21 03:35:49;;;;;;;117.20;109.47;;;;;;;;;;10151025;28;20444;-70
2022/10/21 03:40:45;;;;;;;121.07;113.28;;;;;;;;;;10146805;28;20053;-70
2022/10/21 03:45:41;;;;;;;121.38;113.38;;;;;;;;;;10139671;28;20050;-71
2022/10/21 03:50:37;;;;;;;118.95;111.05;;;;;;;;;;10133027;28;20050;-70
2022/10/21 03:55:34;;;;;;;114.32;106.90;;;;;;;;;;10145429;28;20043;-70
2022/10/21 04:00:30;;;;;;;119.93;112.13;;;;;;;;;;10129964;28;20084;-70
2022/10/21 04:05:27;;;;;;;112.93;105.50;;;;;;;;;;10144475;28;20464;-70
2022/10/21 04:10:23;;;;;;;118.10;110.57;;;;;;;;;;10142899;28;20050;-70
2022/10/21 04:15:19;;;;;;;120.88;112.65;;;;;;;;;;10147936;28;20112;-70
2022/10/21 04:20:15;;;;;;;114.72;107.07;;;;;;;;;;10130323;28;20049;-70
2022/10/21 04:25:11;;;;;;;114.72;107.07;;;;;;;;;;10103713;28;20042;-70
2022/10/21 04:30:08;;;;;;;116.40;108.60;;;;;;;;;;10116095;28;20038;-70
2022/10/21 04:35:04;;;;;;;115.55;107.82;;;;;;;;;;10157153;28;20042;-70
2022/10/21 04:40:00;;;;;;;118.70;110.88;;;;;;;;;;10147079;28;20410;-69
2022/10/21 04:44:57;;;;;;;115.63;108.15;;;;;;;;;;10143738;28;20058;-70
2022/10/21 04:49:53;;;;;;;116.05;108.38;;;;;;;;;;10127895;28;20047;-71
2022/10/21 04:54:49;;;;;;;116.95;109.28;;;;;;;;;;10130106;28;20065;-70
2022/10/21 04:59:45;;;;;;;119.18;111.20;;;;;;;;;;10128355;28;20043;-69
2022/10/21 05:04:42;;;;;;;119.65;111.43;;;;;;;;;;10133708;28;20046;-68
2022/10/21 05:09:38;;;;;;;121.82;112.07;;;;;;;;;;10142753;28;20104;-68
2022/10/21 05:14:34;;;;;;;117.97;109.95;;;;;;;;;;10125887;28;20050;-68
2022/10/21 05:19:31;;;;;;;120.82;112.78;;;;;;;;;;10144036;28;20425;-69
2022/10/21 05:24:27;;;;;;;124.18;115.93;;;;;;;;;;10107122;28;20054;-69
2022/10/21 05:29:23;;;;;;;123.75;115.22;;;;;;;;;;10139633;28;20043;-69
2022/10/21 05:34:20;;;;;;;122.75;114.38;;;;;;;;;;10134661;28;20054;-69
2022/10/21 05:39:16;;;;;;;120.30;112.50;;;;;;;;;;10142843;28;20047;-70
2022/10/21 05:44:12;;;;;;;120.78;112.88;;;;;;;;;;10139539;28;20048;-69
2022/10/21 05:49:08;;;;;;;121.35;113.03;;;;;;;;;;10157461;28;20046;-68
2022/10/21 05:54:05;;;;;;;120.20;112.20;;;;;;;;;;10150811;28;20050;-69
2022/10/21 05:59:01;;;;;;;121.35;113.30;;;;;;;;;;10144714;28;20054;-69
2022/10/21 06:04:02;;;;;;;115.03;107.40;;;;;;;;;;10146423;28;20897;-69
2022/10/21 06:08:58;;;;;;;113.57;105.80;;;;;;;;;;10143602;28;20043;-70
2022/10/21 06:13:54;;;;;;;114.65;106.43;;;;;;;;;;10145250;28;20089;-69
2022/10/21 06:18:50;;;;;;;110.75;103.25;;;;;;;;;;10120781;28;20055;-69
2022/10/21 06:23:47;;;;;;;114.47;106.40;;;;;;;;;;10136291;28;20031;-68
2022/10/21 06:28:43;;;;;;;107.57;99.88;;;;;;;;;;10151860;28;20064;-68
2022/10/21 06:33:40;;;;;;;111.03;103.00;;;;;;;;;;10151762;28;20045;-69
2022/10/21 06:38:37;;;;;;;117.13;109.05;;;;;;;;;;10157532;28;20042;-70
2022/10/21 06:43:33;;;;;;;113.22;104.82;;;;;;;;;;10116556;28;20066;-69
2022/10/21 06:48:29;;;;;;;114.85;106.75;;;;;;;;;;10111495;28;20505;-69
2022/10/21 06:53:26;;;;;;;118.07;109.30;;;;;;;;;;10114558;28;20417;-69
2022/10/21 06:58:22;;;;;;;115.90;106.90;;;;;;;;;;10138532;28;20520;-69
2022/10/21 07:03:19;;;;;;;117.43;109.20;;;;;;;;;;10148002;28;20518;-69
2022/10/21 07:08:15;;;;;;;116.65;108.57;;;;;;;;;;10143494;28;20590;-69
2022/10/21 07:13:14;;;;;;;111.97;103.43;;;;;;;;;;10133282;28;20126;-69
2022/10/21 07:18:11;;;;;;;112.13;104.13;;;;;;;;;;10140145;28;20061;-69
2022/10/21 07:23:07;;;;;;;118.07;109.35;;;;;;;;;;10148918;28;20053;-69
2022/10/21 07:28:03;;;;;;;116.40;108.18;;;;;;;;;;10146621;28;20046;-69
2022/10/21 07:32:59;;;;;;;108.13;100.22;;;;;;;;;;10153747;28;20046;-69
2022/10/21 07:37:56;;;;;;;111.60;102.88;;;;;;;;;;10150631;28;20039;-69
2022/10/21 07:42:52;;;;;;;115.72;107.32;;;;;;;;;;10133740;28;20542;-69
2022/10/21 07:47:48;;;;;;;116.85;108.55;;;;;;;;;;10103397;28;20043;-69
2022/10/21 07:52:45;;;;;;;114.25;106.05;;;;;;;;;;10116575;28;20042;-70
2022/10/21 07:57:59;;;;;;;124.82;116.15;;;;;;;;;;10140395;28;20133;-69
2022/10/21 08:02:55;;;;;;;120.72;111.97;;;;;;;;;;10148823;28;20573;-69
2022/10/21 08:07:51;;;;;;;120.70;112.03;;;;;;;;;;10149755;28;20050;-69
2022/10/21 08:12:48;;;;;;;120.05;111.55;;;;;;;;;;10143787;28;20416;-69
2022/10/21 08:17:44;;;;;;;120.50;111.50;;;;;;;;;;10143261;28;20744;-70
2022/10/21 08:22:40;;;;;;;117.32;108.68;;;;;;;;;;10127152;28;20057;-69
2022/10/21 08:27:37;;;;;;;126.75;117.70;;;;;;;;;;10135957;28;20046;-69
2022/10/21 08:32:33;;;;;;;130.20;121.00;;;;;;;;;;10121220;28;20047;-69
2022/10/21 08:37:30;;;;;;;133.63;124.13;;;;;;;;;;10126604;28;20469;-69
2022/10/21 08:42:27;;;;;;;137.75;128.45;;;;;;;;;;10153290;28;20059;-69
2022/10/21 08:47:23;;;;;;;138.77;129.38;;;;;;;;;;10148526;28;20045;-69
2022/10/21 08:52:22;;;;;;;141.73;132.15;;;;;;;;;;10145524;28;20501;-69
2022/10/21 08:57:18;;;;;;;134.60;125.43;;;;;;;;;;10141522;28;20061;-70
2022/10/21 09:02:21;;;;;;;130.90;122.05;;;;;;;;;;10139776;28;20042;-69
2022/10/21 09:07:26;;;;;;;131.50;122.53;;;;;;;;;;10144100;28;20058;-69
2022/10/21 09:12:40;;;;;;;126.22;117.55;;;;;;;;;;10146035;28;20050;-69
2022/10/21 09:17:52;;;;;;;129.32;120.40;;;;;;;;;;10131319;28;20430;-69
2022/10/21 09:23:07;;;;;;;120.55;112.25;;;;;;;;;;10147333;28;20050;-69
2022/10/21 09:28:11;;;;;;;131.65;122.70;;;;;;;;;;10138899;28;20051;-69
2022/10/21 09:33:20;;;;;;;129.82;121.03;;;;;;;;;;10117506;28;20055;-69
2022/10/21 09:38:25;;;;;;;130.27;121.95;;;;;;;;;;10133194;28;20051;-69
2022/10/21 09:43:23;;;;;;;135.43;126.68;;;;;;;;;;10114842;28;20046;-70
2022/10/21 09:48:24;;;;;;;126.80;118.97;;;;;;;;;;10125036;28;20420;-69
2022/10/21 09:53:22;;;;;;;121.40;112.97;;;;;;;;;;10140378;28;20053;-69
2022/10/21 09:58:26;;;;;;;113.07;105.63;;;;;;;;;;10143901;28;20069;-69
2022/10/21 10:03:30;;;;;;;110.90;103.22;;;;;;;;;;10145958;28;20054;-69
2022/10/21 10:08:28;;;;;;;112.38;104.63;;;;;;;;;;10134339;28;20065;-70
2022/10/21 10:13:26;;;;;;;112.20;104.30;;;;;;;;;;10142361;28;20531;-70
2022/10/21 10:18:23;;;;;;;111.05;103.47;;;;;;;;;;10139416;28;20053;-70
2022/10/21 10:23:19;;;;;;;117.18;109.20;;;;;;;;;;10140451;28;20054;-70
2022/10/21 10:28:17;;;;;;;117.40;109.57;;;;;;;;;;10136379;28;20052;-70
2022/10/21 10:33:27;;;;;;;126.57;118.25;;;;;;;;;;10144206;28;20046;-70
2022/10/21 10:38:35;;;;;;;130.68;122.13;;;;;;;;;;10119688;28;20047;-70
2022/10/21 10:43:32;;;;;;;132.07;123.90;;;;;;;;;;10132342;28;20056;-70
2022/10/21 10:48:28;;;;;;;132.45;124.05;;;;;;;;;;10132924;28;20402;-70
2022/10/21 10:53:28;;;;;;;126.97;118.93;;;;;;;;;;10110923;28;20050;-69
2022/10/21 10:58:25;;;;;;;133.43;124.90;;;;;;;;;;10097780;28;20504;-70
2022/10/21 11:03:32;;;;;;;126.82;118.80;;;;;;;;;;10101941;28;20054;-70
2022/10/21 11:08:40;;;;;;;118.78;111.10;;;;;;;;;;10139921;28;20126;-70
2022/10/21 11:13:37;;;;;;;123.28;115.95;;;;;;;;;;10144027;28;20037;-70
2022/10/21 11:19:06;;;;;;;119.13;111.45;;;;;;;;;;10144276;28;20504;-70
2022/10/21 11:24:17;;;;;;;126.65;119.30;;;;;;;;;;10121819;28;20081;-70
2022/10/21 11:29:26;;;;;;;131.50;123.53;;;;;;;;;;10112106;28;20059;-70
2022/10/21 11:34:33;;;;;;;128.63;120.88;;;;;;;;;;10099611;28;20047;-70
2022/10/21 11:39:38;;;;;;;123.35;115.65;;;;;;;;;;10137093;28;20038;-70
2022/10/21 11:44:42;;;;;;;115.88;108.85;;;;;;;;;;10142353;28;20515;-70
2022/10/21 11:49:38;;;;;;;112.03;105.13;;;;;;;;;;10114441;28;20073;-70
2022/10/21 11:54:42;;;;;;;110.68;104.35;;;;;;;;;;10102750;28;20047;-70
2022/10/21 11:59:58;;;;;;;;;;;;;;;;;;10147567;28;20050;-70
2022/10/21 12:05:10;;;;;;;101.60;95.75;;;;;;;;;;10104462;28;19926;-70
2022/10/21 12:10:12;;;;;;;104.75;98.68;;;;;;;;;;10149121;28;20058;-70
2022/10/21 12:15:20;;;;;;;89.28;84.00;;;;;;;;;;10100239;28;20055;-70
2022/10/21 12:20:19;;;;;;;82.95;77.85;;;;;;;;;;10142649;28;20047;-70
2022/10/21 12:25:19;;;;;;;85.82;80.32;;;;;;;;;;10102457;28;20136;-70
2022/10/21 12:30:15;;;;;;;82.95;77.82;;;;;;;;;;10097912;28;20441;-70
2022/10/21 12:35:20;;;;;;;91.47;86.03;;;;;;;;;;10148743;28;20143;-70
2022/10/21 12:40:25;;;;;;;83.30;78.25;;;;;;;;;;10115068;28;20054;-70
2022/10/21 12:45:32;;;;;;;77.50;72.57;;;;;;;;;;10121197;28;20549;-70
2022/10/21 12:50:29;;;;;;;73.45;68.70;;;;;;;;;;10144730;28;20042;-70
2022/10/21 12:55:27;;;;;;;73.18;68.65;;;;;;;;;;10107532;28;20038;-70
2022/10/21 13:00:26;;;;;;;90.43;84.88;;;;;;;;;;10148168;28;20043;-70
2022/10/21 13:05:37;;;;;;;89.68;84.10;;;;;;;;;;10106349;28;20047;-70
2022/10/21 13:10:34;;;;;;;94.78;89.28;;;;;;;;;;10102811;28;20042;-70
2022/10/21 13:15:30;;;;;;;92.28;87.03;;;;;;;;;;10114284;28;20047;-68
2022/10/21 13:20:32;;;;;;;90.07;84.75;;;;;;;;;;10103002;28;20046;-70
2022/10/21 13:25:28;;;;;;;84.90;79.82;;;;;;;;;;10106844;28;20049;-70
2022/10/21 13:30:34;;;;;;;84.05;79.07;;;;;;;;;;10151156;28;20052;-70
2022/10/21 13:35:44;;;;;;;84.90;80.03;;;;;;;;;;10137453;28;20467;-70
2022/10/21 13:40:50;;;;;;;86.13;81.13;;;;;;;;;;10142385;28;20500;-70
2022/10/21 13:45:48;;;;;;;78.82;74.28;;;;;;;;;;10134795;28;20046;-70
2022/10/21 13:50:46;;;;;;;79.70;74.97;;;;;;;;;;10150370;28;20531;-70
2022/10/21 13:55:42;;;;;;;86.28;80.80;;;;;;;;;;10145604;28;20061;-70
2022/10/21 14:00:38;;;;;;;87.38;81.82;;;;;;;;;;10140684;28;20412;-70
2022/10/21 14:05:37;;;;;;;83.90;78.82;;;;;;;;;;10121135;28;20396;-70
2022/10/21 14:10:34;;;;;;;91.72;86.28;;;;;;;;;;10153621;28;20054;-70
2022/10/21 14:15:38;;;;;;;97.53;91.65;;;;;;;;;;10108285;28;20046;-69
2022/10/21 14:20:36;;;;;;;91.03;85.35;;;;;;;;;;10115972;28;20042;-70
2022/10/21 14:25:32;;;;;;;95.20;89.47;;;;;;;;;;10163041;28;20046;-70
2022/10/21 14:30:30;;;;;;;96.05;90.47;;;;;;;;;;10161497;28;20053;-70
2022/10/21 14:35:28;;;;;;;96.18;90.60;;;;;;;;;;10155629;28;20054;-70
2022/10/21 14:40:31;;;;;;;102.80;96.70;;;;;;;;;;10109341;28;20054;-70
2022/10/21 14:45:29;;;;;;;102.28;95.97;;;;;;;;;;10113809;28;20171;-70
2022/10/21 14:50:26;;;;;;;102.53;96.45;;;;;;;;;;10126482;28;20050;-70
2022/10/21 14:55:28;;;;;;;107.68;101.20;;;;;;;;;;10147380;28;20501;-70
2022/10/21 15:00:26;;;;;;;106.95;100.75;;;;;;;;;;10102266;28;20043;-69
2022/10/21 15:05:27;;;;;;;108.25;101.75;;;;;;;;;;10116372;28;20080;-69
2022/10/21 15:10:23;;;;;;;109.72;102.95;;;;;;;;;;10151775;28;20069;-69
2022/10/21 15:15:39;;;;;;;115.40;108.28;;;;;;;;;;10156573;28;20045;-69
2022/10/21 15:20:35;;;;;;;118.20;111.32;;;;;;;;;;10155229;28;20049;-69
2022/10/21 15:25:31;;;;;;;105.95;99.53;;;;;;;;;;10155931;28;20042;-69
2022/10/21 15:30:33;;;;;;;100.82;94.78;;;;;;;;;;10152944;28;20052;-69
2022/10/21 15:35:30;;;;;;;107.43;101.05;;;;;;;;;;10145220;28;20042;-70
2022/10/21 15:40:26;;;;;;;101.15;94.93;;;;;;;;;;10146578;28;20053;-70
2022/10/21 15:45:22;;;;;;;105.13;98.72;;;;;;;;;;10153783;28;20057;-70
2022/10/21 15:50:23;;;;;;;102.53;95.57;;;;;;;;;;10158856;28;20057;-69
2022/10/21 15:55:19;;;;;;;103.35;96.95;;;;;;;;;;10142223;28;20043;-70
2022/10/21 16:00:18;;;;;;;102.03;95.63;;;;;;;;;;10113324;28;20053;-70
2022/10/21 16:05:14;;;;;;;98.68;91.90;;;;;;;;;;10117458;28;20057;-70
2022/10/21 16:10:13;;;;;;;99.38;92.88;;;;;;;;;;10111810;28;20055;-70
2022/10/21 16:15:10;;;;;;;100.20;93.68;;;;;;;;;;10112897;28;20408;-70
2022/10/21 16:20:06;;;;;;;96.50;89.85;;;;;;;;;;10152165;28;20057;-70
2022/10/21 16:25:03;;;;;;;100.38;93.65;;;;;;;;;;10108191;28;20066;-70
2022/10/21 16:29:59;;;;;;;98.90;92.32;;;;;;;;;;10110802;28;20050;-70
2022/10/21 16:34:56;;;;;;;102.00;95.00;;;;;;;;;;10112022;28;20038;-70
2022/10/21 16:39:52;;;;;;;101.10;94.10;;;;;;;;;;10151589;28;20050;-69
2022/10/21 16:44:49;;;;;;;104.90;97.57;;;;;;;;;;10148171;28;20500;-70
2022/10/21 16:49:46;;;;;;;101.07;94.05;;;;;;;;;;10153846;28;20038;-69
2022/10/21 16:54:43;;;;;;;100.97;93.70;;;;;;;;;;10113004;28;20046;-70
2022/10/21 16:59:43;;;;;;;97.85;90.63;;;;;;;;;;10146123;28;20046;-70
2022/10/21 17:04:41;;;;;;;102.68;95.38;;;;;;;;;;10149915;28;20535;-70
2022/10/21 17:09:38;;;;;;;100.35;93.22;;;;;;;;;;10147926;28;20575;-70
2022/10/21 17:14:34;;;;;;;105.10;97.85;;;;;;;;;;10140069;28;20101;-70
2022/10/21 17:19:35;;;;;;;105.93;98.53;;;;;;;;;;10116551;28;20034;-70
2022/10/21 17:24:31;;;;;;;103.00;95.57;;;;;;;;;;10115009;28;20042;-70
2022/10/21 17:29:28;;;;;;;102.30;94.80;;;;;;;;;;10105447;28;20420;-70
2022/10/21 17:34:26;;;;;;;103.88;96.47;;;;;;;;;;10145746;28;20038;-70
2022/10/21 17:39:23;;;;;;;99.85;92.70;;;;;;;;;;10132148;28;20046;-70
2022/10/21 17:44:19;;;;;;;102.20;94.55;;;;;;;;;;10147179;28;20046;-70
2022/10/21 17:49:16;;;;;;;104.40;96.60;;;;;;;;;;10154196;28;20050;-70
2022/10/21 17:54:13;;;;;;;104.07;96.45;;;;;;;;;;10135849;28;20563;-70
2022/10/21 17:59:09;;;;;;;104.18;96.53;;;;;;;;;;10102141;28;20043;-70
2022/10/21 18:04:05;;;;;;;102.72;95.28;;;;;;;;;;10142905;28;20050;-70
2022/10/21 18:09:04;;;;;;;105.72;98.22;;;;;;;;;;10152530;28;20050;-70
2022/10/21 18:14:00;;;;;;;106.13;98.53;;;;;;;;;;10152867;28;20775;-70
2022/10/21 18:18:56;;;;;;;109.80;102.00;;;;;;;;;;10143376;28;20038;-70
2022/10/21 18:23:58;;;;;;;102.00;94.80;;;;;;;;;;10145046;28;20096;-70
2022/10/21 18:28:56;;;;;;;104.63;97.07;;;;;;;;;;10141235;28;20397;-70
2022/10/21 18:33:53;;;;;;;106.13;98.57;;;;;;;;;;10143388;28;20042;-70
2022/10/21 18:38:49;;;;;;;107.05;99.65;;;;;;;;;;10111905;28;20049;-70
2022/10/21 18:43:50;;;;;;;107.70;99.93;;;;;;;;;;10111953;28;20056;-70
2022/10/21 18:48:47;;;;;;;107.45;99.45;;;;;;;;;;10137200;28;20053;-70
2022/10/21 18:53:44;;;;;;;110.75;102.72;;;;;;;;;;10111836;28;20445;-69
2022/10/21 18:58:47;;;;;;;109.68;101.75;;;;;;;;;;10141679;28;20046;-70
2022/10/21 19:03:43;;;;;;;107.85;100.32;;;;;;;;;;10147849;28;20443;-70
2022/10/21 19:08:39;;;;;;;111.25;103.03;;;;;;;;;;10129127;28;20050;-70
2022/10/21 19:13:36;;;;;;;106.88;99.15;;;;;;;;;;10142327;28;20034;-71
2022/10/21 19:18:32;;;;;;;105.85;98.25;;;;;;;;;;10139952;28;20050;-71
2022/10/21 19:23:31;;;;;;;111.40;102.95;;;;;;;;;;10147955;28;20628;-70
2022/10/21 19:28:27;;;;;;;111.47;103.10;;;;;;;;;;10129255;28;20530;-70
2022/10/21 19:33:23;;;;;;;113.07;104.68;;;;;;;;;;10137336;28;20054;-70
2022/10/21 19:38:20;;;;;;;107.70;99.75;;;;;;;;;;10123067;28;20050;-70
2022/10/21 19:43:37;;;;;;;108.15;99.53;;;;;;;;;;10153077;28;20046;-70
2022/10/21 19:48:34;;;;;;;100.05;92.57;;;;;;;;;;10150364;28;20046;-70
2022/10/21 19:53:33;;;;;;;92.43;85.15;;;;;;;;;;10123328;28;20497;-70
2022/10/21 19:58:30;;;;;;;91.32;84.05;;;;;;;;;;10135239;28;20048;-70
2022/10/21 20:03:26;;;;;;;87.25;80.45;;;;;;;;;;10119700;28;20050;-70
2022/10/21 20:08:22;;;;;;;87.88;80.82;;;;;;;;;;10139532;28;20632;-70
2022/10/21 20:13:19;;;;;;;88.80;81.55;;;;;;;;;;10117116;28;20043;-69
2022/10/21 20:18:15;;;;;;;85.38;78.68;;;;;;;;;;10103468;28;20405;-70
2022/10/21 20:23:11;;;;;;;87.25;80.35;;;;;;;;;;10128196;28;20049;-71
2022/10/21 20:28:07;;;;;;;84.97;77.78;;;;;;;;;;10097116;28;20063;-71
2022/10/21 20:33:04;;;;;;;85.30;78.35;;;;;;;;;;10134367;28;20412;-71
2022/10/21 20:38:00;;;;;;;89.03;81.82;;;;;;;;;;10147013;28;20058;-71
2022/10/21 20:42:56;;;;;;;90.22;83.03;;;;;;;;;;10152807;28;20512;-71
2022/10/21 20:47:52;;;;;;;89.45;82.25;;;;;;;;;;10120954;28;20046;-71
2022/10/21 20:52:49;;;;;;;90.10;82.57;;;;;;;;;;10108001;28;20043;-71
2022/10/21 20:57:45;;;;;;;91.22;84.00;;;;;;;;;;10097334;28;20498;-71
2022/10/21 21:02:42;;;;;;;88.28;80.80;;;;;;;;;;10103701;28;20512;-71
2022/10/21 21:07:38;;;;;;;89.03;81.60;;;;;;;;;;10126176;28;20519;-71
2022/10/21 21:12:35;;;;;;;88.97;81.82;;;;;;;;;;10114326;28;20612;-70
2022/10/21 21:17:31;;;;;;;88.63;81.53;;;;;;;;;;10134737;28;20034;-71
2022/10/21 21:22:27;;;;;;;92.60;85.30;;;;;;;;;;10149817;28;20054;-71
2022/10/21 21:27:23;;;;;;;90.90;83.70;;;;;;;;;;10154018;28;20129;-71
2022/10/21 21:32:20;;;;;;;90.95;83.85;;;;;;;;;;10151762;28;20524;-71
2022/10/21 21:37:16;;;;;;;91.72;84.70;;;;;;;;;;10150359;28;20065;-71
2022/10/21 21:42:12;;;;;;;91.93;84.82;;;;;;;;;;10137617;28;20046;-71
2022/10/21 21:47:09;;;;;;;96.90;88.88;;;;;;;;;;10134144;28;20051;-71
2022/10/21 21:52:05;;;;;;;92.72;85.35;;;;;;;;;;10127565;28;20052;-71
2022/10/21 21:57:01;;;;;;;93.57;86.45;;;;;;;;;;10129836;28;20103;-71
2022/10/21 22:02:17;;;;;;;93.68;86.25;;;;;;;;;;10090734;28;20082;-71
2022/10/21 22:07:14;;;;;;;95.00;87.38;;;;;;;;;;10107737;28;20062;-71
2022/10/21 22:12:10;;;;;;;92.35;84.95;;;;;;;;;;10102403;28;20436;-71
2022/10/21 22:17:10;;;;;;;94.70;87.32;;;;;;;;;;10097772;28;20050;-71
2022/10/21 22:22:06;;;;;;;96.28;88.75;;;;;;;;;;10120857;28;20058;-71
2022/10/21 22:27:02;;;;;;;94.15;86.45;;;;;;;;;;10155277;28;20386;-71
2022/10/21 22:31:59;;;;;;;98.45;90.68;;;;;;;;;;10138430;28;20038;-71
2022/10/21 22:36:55;;;;;;;97.95;90.28;;;;;;;;;;10109981;28;20039;-71
2022/10/21 22:41:51;;;;;;;97.03;89.63;;;;;;;;;;10106580;28;20039;-71
2022/10/21 22:46:48;;;;;;;96.38;88.88;;;;;;;;;;10099612;28;20043;-71
2022/10/21 22:51:44;;;;;;;105.15;96.90;;;;;;;;;;10108177;28;20042;-71
2022/10/21 22:56:41;;;;;;;102.65;94.40;;;;;;;;;;10104048;28;20046;-71
2022/10/21 23:01:37;;;;;;;100.15;92.13;;;;;;;;;;10098508;28;20042;-71
2022/10/21 23:06:33;;;;;;;100.25;92.28;;;;;;;;;;10112040;28;20054;-71
2022/10/21 23:11:30;;;;;;;99.22;91.63;;;;;;;;;;10109700;28;20042;-71
2022/10/21 23:16:26;;;;;;;101.30;93.30;;;;;;;;;;10108592;28;20070;-71
2022/10/21 23:21:23;;;;;;;100.22;92.20;;;;;;;;;;10099460;28;20221;-71
2022/10/21 23:26:19;;;;;;;101.45;93.65;;;;;;;;;;10108193;28;20051;-71
2022/10/21 23:31:15;;;;;;;101.82;93.68;;;;;;;;;;10104868;28;20062;-71
2022/10/21 23:36:12;;;;;;;101.43;93.65;;;;;;;;;;10114686;28;20232;-71
2022/10/21 23:41:08;;;;;;;100.38;92.47;;;;;;;;;;10143941;28;20039;-71
2022/10/21 23:46:05;;;;;;;100.40;92.28;;;;;;;;;;10118227;28;20060;-71
2022/10/21 23:51:03;;;;;;;101.78;93.88;;;;;;;;;;10136403;28;20082;-71
2022/10/21 23:55:59;;;;;;;104.03;95.78;;;;;;;;;;10116063;28;20050;-71
